sensor_id;sensor_type;location;lat;lon;timestamp;P1;durP1;ratioP1;P2;durP2;ratioP2
32760;SDS011;19126;47.472;7.850;2023-04-06T00:01:12;13.65;;;8.23;;
32760;SDS011;19126;47.472;7.850;2023-04-06T00:03:41;14.75;;;8.70;;
32760;SDS011;19126;47.472;7.850;2023-04-06T00:06:08;14.88;;;8.55;;
32760;SDS011;19126;47.472;7.850;2023-04-06T00:08:35;16.75;;;8.90;;
32760;SDS011;19126;47.472;7.850;2023-04-06T00:11:03;16.23;;;8.88;;
32760;SDS011;19126;47.472;7.850;2023-04-06T00:13:30;12.77;;;8.48;;
32760;SDS011;19126;47.472;7.850;2023-04-06T00:15:57;14.25;;;9.32;;
32760;SDS011;19126;47.472;7.850;2023-04-06T00:18:25;16.00;;;10.15;;
32760;SDS011;19126;47.472;7.850;2023-04-06T00:20:57;13.45;;;8.35;;
32760;SDS011;19126;47.472;7.850;2023-04-06T00:23:24;16.75;;;9.60;;
32760;SDS011;19126;47.472;7.850;2023-04-06T00:25:51;12.23;;;8.55;;
32760;SDS011;19126;47.472;7.850;2023-04-06T00:28:18;14.50;;;8.60;;
32760;SDS011;19126;47.472;7.850;2023-04-06T00:30:50;23.58;;;10.77;;
32760;SDS011;19126;47.472;7.850;2023-04-06T00:33:20;17.25;;;9.15;;
32760;SDS011;19126;47.472;7.850;2023-04-06T00:35:48;14.85;;;8.48;;
32760;SDS011;19126;47.472;7.850;2023-04-06T00:38:17;13.98;;;8.77;;
32760;SDS011;19126;47.472;7.850;2023-04-06T00:40:44;12.07;;;8.30;;
32760;SDS011;19126;47.472;7.850;2023-04-06T00:43:12;16.05;;;8.07;;
32760;SDS011;19126;47.472;7.850;2023-04-06T00:45:41;11.35;;;7.63;;
32760;SDS011;19126;47.472;7.850;2023-04-06T00:48:09;13.15;;;8.88;;
32760;SDS011;19126;47.472;7.850;2023-04-06T00:50:36;13.52;;;9.52;;
32760;SDS011;19126;47.472;7.850;2023-04-06T00:53:04;12.98;;;7.70;;
32760;SDS011;19126;47.472;7.850;2023-04-06T00:55:33;16.58;;;8.18;;
32760;SDS011;19126;47.472;7.850;2023-04-06T00:58:01;12.48;;;8.27;;
32760;SDS011;19126;47.472;7.850;2023-04-06T01:00:29;20.13;;;9.07;;
32760;SDS011;19126;47.472;7.850;2023-04-06T01:02:56;11.32;;;7.47;;
32760;SDS011;19126;47.472;7.850;2023-04-06T01:05:23;15.10;;;9.45;;
32760;SDS011;19126;47.472;7.850;2023-04-06T01:07:51;15.60;;;8.05;;
32760;SDS011;19126;47.472;7.850;2023-04-06T01:10:24;15.55;;;8.90;;
32760;SDS011;19126;47.472;7.850;2023-04-06T01:12:53;13.23;;;8.73;;
32760;SDS011;19126;47.472;7.850;2023-04-06T01:15:21;16.80;;;8.95;;
32760;SDS011;19126;47.472;7.850;2023-04-06T01:17:49;15.57;;;8.20;;
32760;SDS011;19126;47.472;7.850;2023-04-06T01:20:17;15.07;;;8.68;;
32760;SDS011;19126;47.472;7.850;2023-04-06T01:22:49;19.23;;;8.20;;
32760;SDS011;19126;47.472;7.850;2023-04-06T01:25:16;12.40;;;8.05;;
32760;SDS011;19126;47.472;7.850;2023-04-06T01:27:44;12.13;;;7.25;;
32760;SDS011;19126;47.472;7.850;2023-04-06T01:30:11;11.30;;;7.32;;
32760;SDS011;19126;47.472;7.850;2023-04-06T01:32:39;13.68;;;8.02;;
32760;SDS011;19126;47.472;7.850;2023-04-06T01:35:07;13.00;;;8.77;;
32760;SDS011;19126;47.472;7.850;2023-04-06T01:37:37;15.70;;;9.13;;
32760;SDS011;19126;47.472;7.850;2023-04-06T01:40:07;16.67;;;8.65;;
32760;SDS011;19126;47.472;7.850;2023-04-06T01:42:36;17.80;;;9.05;;
32760;SDS011;19126;47.472;7.850;2023-04-06T01:45:04;13.32;;;8.18;;
32760;SDS011;19126;47.472;7.850;2023-04-06T01:47:32;14.60;;;8.70;;
32760;SDS011;19126;47.472;7.850;2023-04-06T01:50:00;12.95;;;9.00;;
32760;SDS011;19126;47.472;7.850;2023-04-06T01:52:30;12.80;;;8.55;;
32760;SDS011;19126;47.472;7.850;2023-04-06T01:54:57;13.23;;;8.18;;
32760;SDS011;19126;47.472;7.850;2023-04-06T01:57:28;17.35;;;9.82;;
32760;SDS011;19126;47.472;7.850;2023-04-06T01:59:56;12.25;;;8.70;;
32760;SDS011;19126;47.472;7.850;2023-04-06T02:02:23;14.13;;;9.32;;
32760;SDS011;19126;47.472;7.850;2023-04-06T02:04:53;15.63;;;8.43;;
32760;SDS011;19126;47.472;7.850;2023-04-06T02:07:21;16.13;;;9.18;;
32760;SDS011;19126;47.472;7.850;2023-04-06T02:09:48;14.18;;;8.95;;
32760;SDS011;19126;47.472;7.850;2023-04-06T02:12:17;14.27;;;9.25;;
32760;SDS011;19126;47.472;7.850;2023-04-06T02:14:45;15.18;;;9.02;;
32760;SDS011;19126;47.472;7.850;2023-04-06T02:17:15;15.50;;;9.68;;
32760;SDS011;19126;47.472;7.850;2023-04-06T02:19:42;15.82;;;9.15;;
32760;SDS011;19126;47.472;7.850;2023-04-06T02:22:09;14.25;;;8.90;;
32760;SDS011;19126;47.472;7.850;2023-04-06T02:24:37;15.80;;;9.73;;
32760;SDS011;19126;47.472;7.850;2023-04-06T02:27:04;16.13;;;9.55;;
32760;SDS011;19126;47.472;7.850;2023-04-06T02:29:31;11.60;;;8.32;;
32760;SDS011;19126;47.472;7.850;2023-04-06T02:32:00;15.35;;;9.57;;
32760;SDS011;19126;47.472;7.850;2023-04-06T02:34:27;16.00;;;9.55;;
32760;SDS011;19126;47.472;7.850;2023-04-06T02:36:55;17.95;;;9.55;;
32760;SDS011;19126;47.472;7.850;2023-04-06T02:39:22;16.05;;;9.55;;
32760;SDS011;19126;47.472;7.850;2023-04-06T02:41:50;14.85;;;9.07;;
32760;SDS011;19126;47.472;7.850;2023-04-06T02:44:17;14.85;;;8.57;;
32760;SDS011;19126;47.472;7.850;2023-04-06T02:46:44;14.93;;;9.13;;
32760;SDS011;19126;47.472;7.850;2023-04-06T02:49:13;18.83;;;10.20;;
32760;SDS011;19126;47.472;7.850;2023-04-06T02:51:41;17.35;;;8.80;;
32760;SDS011;19126;47.472;7.850;2023-04-06T02:54:08;13.88;;;9.32;;
32760;SDS011;19126;47.472;7.850;2023-04-06T02:56:35;16.05;;;11.07;;
32760;SDS011;19126;47.472;7.850;2023-04-06T02:59:02;13.43;;;8.30;;
32760;SDS011;19126;47.472;7.850;2023-04-06T03:01:30;15.07;;;9.23;;
32760;SDS011;19126;47.472;7.850;2023-04-06T03:03:57;12.98;;;8.50;;
32760;SDS011;19126;47.472;7.850;2023-04-06T03:06:26;12.40;;;8.43;;
32760;SDS011;19126;47.472;7.850;2023-04-06T03:08:53;15.68;;;9.77;;
32760;SDS011;19126;47.472;7.850;2023-04-06T03:11:21;15.63;;;9.25;;
32760;SDS011;19126;47.472;7.850;2023-04-06T03:13:51;15.82;;;8.55;;
32760;SDS011;19126;47.472;7.850;2023-04-06T03:16:21;13.73;;;9.40;;
32760;SDS011;19126;47.472;7.850;2023-04-06T03:18:48;13.55;;;8.95;;
32760;SDS011;19126;47.472;7.850;2023-04-06T03:21:16;16.77;;;9.32;;
32760;SDS011;19126;47.472;7.850;2023-04-06T03:23:45;14.68;;;9.30;;
32760;SDS011;19126;47.472;7.850;2023-04-06T03:26:14;24.35;;;9.35;;
32760;SDS011;19126;47.472;7.850;2023-04-06T03:28:42;14.82;;;8.55;;
32760;SDS011;19126;47.472;7.850;2023-04-06T03:31:09;16.38;;;9.20;;
32760;SDS011;19126;47.472;7.850;2023-04-06T03:33:36;13.27;;;8.75;;
32760;SDS011;19126;47.472;7.850;2023-04-06T03:36:04;13.52;;;9.57;;
32760;SDS011;19126;47.472;7.850;2023-04-06T03:38:32;13.45;;;8.75;;
32760;SDS011;19126;47.472;7.850;2023-04-06T03:41:01;31.42;;;15.40;;
32760;SDS011;19126;47.472;7.850;2023-04-06T03:43:29;42.50;;;19.00;;
32760;SDS011;19126;47.472;7.850;2023-04-06T03:45:56;30.67;;;14.80;;
32760;SDS011;19126;47.472;7.850;2023-04-06T03:48:23;24.90;;;13.00;;
32760;SDS011;19126;47.472;7.850;2023-04-06T03:50:50;17.77;;;11.50;;
32760;SDS011;19126;47.472;7.850;2023-04-06T03:53:18;21.65;;;10.05;;
32760;SDS011;19126;47.472;7.850;2023-04-06T03:55:45;18.75;;;10.88;;
32760;SDS011;19126;47.472;7.850;2023-04-06T03:58:14;21.10;;;12.30;;
32760;SDS011;19126;47.472;7.850;2023-04-06T04:00:42;22.42;;;13.50;;
32760;SDS011;19126;47.472;7.850;2023-04-06T04:03:09;21.67;;;11.90;;
32760;SDS011;19126;47.472;7.850;2023-04-06T04:05:36;24.67;;;13.18;;
32760;SDS011;19126;47.472;7.850;2023-04-06T04:08:04;19.98;;;12.10;;
32760;SDS011;19126;47.472;7.850;2023-04-06T04:10:31;24.50;;;11.48;;
32760;SDS011;19126;47.472;7.850;2023-04-06T04:12:58;23.95;;;13.55;;
32760;SDS011;19126;47.472;7.850;2023-04-06T04:15:27;25.58;;;12.77;;
32760;SDS011;19126;47.472;7.850;2023-04-06T04:17:55;23.25;;;11.82;;
32760;SDS011;19126;47.472;7.850;2023-04-06T04:20:22;28.45;;;14.32;;
32760;SDS011;19126;47.472;7.850;2023-04-06T04:22:50;38.63;;;13.93;;
32760;SDS011;19126;47.472;7.850;2023-04-06T04:25:17;27.23;;;14.93;;
32760;SDS011;19126;47.472;7.850;2023-04-06T04:27:45;24.20;;;12.95;;
32760;SDS011;19126;47.472;7.850;2023-04-06T04:30:12;30.50;;;14.05;;
32760;SDS011;19126;47.472;7.850;2023-04-06T04:32:41;21.92;;;12.13;;
32760;SDS011;19126;47.472;7.850;2023-04-06T04:35:09;19.85;;;12.00;;
32760;SDS011;19126;47.472;7.850;2023-04-06T04:37:38;24.10;;;12.27;;
32760;SDS011;19126;47.472;7.850;2023-04-06T04:40:07;24.42;;;12.65;;
32760;SDS011;19126;47.472;7.850;2023-04-06T04:42:36;22.88;;;12.20;;
32760;SDS011;19126;47.472;7.850;2023-04-06T04:45:03;30.33;;;12.23;;
32760;SDS011;19126;47.472;7.850;2023-04-06T04:47:31;25.10;;;13.10;;
32760;SDS011;19126;47.472;7.850;2023-04-06T04:50:01;21.67;;;11.90;;
32760;SDS011;19126;47.472;7.850;2023-04-06T04:52:28;23.98;;;11.63;;
32760;SDS011;19126;47.472;7.850;2023-04-06T04:54:55;23.20;;;11.50;;
32760;SDS011;19126;47.472;7.850;2023-04-06T04:57:23;26.95;;;12.77;;
32760;SDS011;19126;47.472;7.850;2023-04-06T04:59:52;23.45;;;12.05;;
32760;SDS011;19126;47.472;7.850;2023-04-06T05:02:20;17.58;;;10.90;;
32760;SDS011;19126;47.472;7.850;2023-04-06T05:04:47;19.38;;;11.77;;
32760;SDS011;19126;47.472;7.850;2023-04-06T05:07:16;21.73;;;11.57;;
32760;SDS011;19126;47.472;7.850;2023-04-06T05:09:45;20.00;;;11.00;;
32760;SDS011;19126;47.472;7.850;2023-04-06T05:12:13;29.55;;;13.02;;
32760;SDS011;19126;47.472;7.850;2023-04-06T05:14:40;19.73;;;11.90;;
32760;SDS011;19126;47.472;7.850;2023-04-06T05:17:08;18.40;;;11.55;;
32760;SDS011;19126;47.472;7.850;2023-04-06T05:19:35;17.42;;;11.20;;
32760;SDS011;19126;47.472;7.850;2023-04-06T05:22:03;24.02;;;13.77;;
32760;SDS011;19126;47.472;7.850;2023-04-06T05:24:31;22.02;;;10.77;;
32760;SDS011;19126;47.472;7.850;2023-04-06T05:27:00;19.15;;;10.48;;
32760;SDS011;19126;47.472;7.850;2023-04-06T05:29:28;18.75;;;10.98;;
32760;SDS011;19126;47.472;7.850;2023-04-06T05:31:55;22.02;;;11.25;;
32760;SDS011;19126;47.472;7.850;2023-04-06T05:34:23;17.23;;;10.85;;
32760;SDS011;19126;47.472;7.850;2023-04-06T05:36:50;24.88;;;12.60;;
32760;SDS011;19126;47.472;7.850;2023-04-06T05:39:17;22.38;;;11.50;;
32760;SDS011;19126;47.472;7.850;2023-04-06T05:41:46;19.98;;;11.88;;
32760;SDS011;19126;47.472;7.850;2023-04-06T05:44:14;22.83;;;12.25;;
32760;SDS011;19126;47.472;7.850;2023-04-06T05:46:42;18.25;;;12.10;;
32760;SDS011;19126;47.472;7.850;2023-04-06T05:49:09;21.98;;;13.77;;
32760;SDS011;19126;47.472;7.850;2023-04-06T05:51:37;27.08;;;13.30;;
32760;SDS011;19126;47.472;7.850;2023-04-06T05:54:04;28.40;;;13.10;;
32760;SDS011;19126;47.472;7.850;2023-04-06T05:56:32;31.13;;;15.75;;
32760;SDS011;19126;47.472;7.850;2023-04-06T05:59:00;32.40;;;17.15;;
32760;SDS011;19126;47.472;7.850;2023-04-06T06:01:28;46.75;;;21.00;;
32760;SDS011;19126;47.472;7.850;2023-04-06T06:03:55;40.03;;;19.63;;
32760;SDS011;19126;47.472;7.850;2023-04-06T06:06:22;31.35;;;17.02;;
32760;SDS011;19126;47.472;7.850;2023-04-06T06:08:50;32.80;;;19.35;;
32760;SDS011;19126;47.472;7.850;2023-04-06T06:11:17;37.33;;;17.92;;
32760;SDS011;19126;47.472;7.850;2023-04-06T06:13:45;32.60;;;17.48;;
32760;SDS011;19126;47.472;7.850;2023-04-06T06:16:13;32.55;;;17.08;;
32760;SDS011;19126;47.472;7.850;2023-04-06T06:18:41;38.13;;;19.52;;
32760;SDS011;19126;47.472;7.850;2023-04-06T06:21:08;37.58;;;21.77;;
32760;SDS011;19126;47.472;7.850;2023-04-06T06:23:37;36.83;;;21.58;;
32760;SDS011;19126;47.472;7.850;2023-04-06T06:26:04;34.20;;;19.75;;
32760;SDS011;19126;47.472;7.850;2023-04-06T06:28:31;31.35;;;18.20;;
32760;SDS011;19126;47.472;7.850;2023-04-06T06:30:59;34.28;;;19.15;;
32760;SDS011;19126;47.472;7.850;2023-04-06T06:33:27;26.13;;;15.98;;
32760;SDS011;19126;47.472;7.850;2023-04-06T06:35:55;31.52;;;16.15;;
32760;SDS011;19126;47.472;7.850;2023-04-06T06:38:22;29.00;;;15.35;;
32760;SDS011;19126;47.472;7.850;2023-04-06T06:40:50;24.15;;;13.30;;
32760;SDS011;19126;47.472;7.850;2023-04-06T06:43:17;24.05;;;12.95;;
32760;SDS011;19126;47.472;7.850;2023-04-06T06:45:44;24.45;;;13.43;;
32760;SDS011;19126;47.472;7.850;2023-04-06T06:48:12;26.42;;;13.90;;
32760;SDS011;19126;47.472;7.850;2023-04-06T06:50:40;27.38;;;13.82;;
32760;SDS011;19126;47.472;7.850;2023-04-06T06:53:09;28.58;;;13.57;;
32760;SDS011;19126;47.472;7.850;2023-04-06T06:55:36;25.08;;;13.20;;
32760;SDS011;19126;47.472;7.850;2023-04-06T06:58:04;22.98;;;13.85;;
32760;SDS011;19126;47.472;7.850;2023-04-06T07:00:31;19.35;;;11.85;;
32760;SDS011;19126;47.472;7.850;2023-04-06T07:02:59;17.63;;;10.68;;
32760;SDS011;19126;47.472;7.850;2023-04-06T07:05:27;16.17;;;8.75;;
32760;SDS011;19126;47.472;7.850;2023-04-06T07:07:55;14.77;;;9.02;;
32760;SDS011;19126;47.472;7.850;2023-04-06T07:10:23;11.70;;;8.25;;
32760;SDS011;19126;47.472;7.850;2023-04-06T07:12:50;16.10;;;8.77;;
32760;SDS011;19126;47.472;7.850;2023-04-06T07:15:18;12.07;;;7.82;;
32760;SDS011;19126;47.472;7.850;2023-04-06T07:17:48;14.55;;;8.60;;
32760;SDS011;19126;47.472;7.850;2023-04-06T07:20:17;18.52;;;9.88;;
32760;SDS011;19126;47.472;7.850;2023-04-06T07:22:44;15.27;;;9.20;;
32760;SDS011;19126;47.472;7.850;2023-04-06T07:25:16;17.92;;;8.90;;
32760;SDS011;19126;47.472;7.850;2023-04-06T07:27:46;14.98;;;9.07;;
32760;SDS011;19126;47.472;7.850;2023-04-06T07:30:14;15.77;;;8.80;;
32760;SDS011;19126;47.472;7.850;2023-04-06T07:32:41;14.65;;;7.47;;
32760;SDS011;19126;47.472;7.850;2023-04-06T07:35:08;14.02;;;8.10;;
32760;SDS011;19126;47.472;7.850;2023-04-06T07:37:36;10.52;;;7.50;;
32760;SDS011;19126;47.472;7.850;2023-04-06T07:40:03;16.45;;;8.07;;
32760;SDS011;19126;47.472;7.850;2023-04-06T07:45:02;16.60;;;8.27;;
32760;SDS011;19126;47.472;7.850;2023-04-06T07:47:30;18.42;;;8.52;;
32760;SDS011;19126;47.472;7.850;2023-04-06T07:49:57;14.63;;;8.43;;
32760;SDS011;19126;47.472;7.850;2023-04-06T07:52:27;12.25;;;8.82;;
32760;SDS011;19126;47.472;7.850;2023-04-06T07:54:56;21.30;;;9.57;;
32760;SDS011;19126;47.472;7.850;2023-04-06T07:57:24;21.25;;;8.02;;
32760;SDS011;19126;47.472;7.850;2023-04-06T07:59:53;16.65;;;8.65;;
32760;SDS011;19126;47.472;7.850;2023-04-06T08:02:20;13.75;;;8.90;;
32760;SDS011;19126;47.472;7.850;2023-04-06T08:04:47;16.00;;;6.88;;
32760;SDS011;19126;47.472;7.850;2023-04-06T08:07:18;13.93;;;8.30;;
32760;SDS011;19126;47.472;7.850;2023-04-06T08:09:45;10.70;;;7.28;;
32760;SDS011;19126;47.472;7.850;2023-04-06T08:12:12;13.00;;;7.88;;
32760;SDS011;19126;47.472;7.850;2023-04-06T08:14:42;13.75;;;6.68;;
32760;SDS011;19126;47.472;7.850;2023-04-06T08:17:15;13.80;;;7.40;;
32760;SDS011;19126;47.472;7.850;2023-04-06T08:19:42;20.65;;;7.60;;
32760;SDS011;19126;47.472;7.850;2023-04-06T08:22:12;12.80;;;7.13;;
32760;SDS011;19126;47.472;7.850;2023-04-06T08:24:39;13.57;;;7.50;;
32760;SDS011;19126;47.472;7.850;2023-04-06T08:27:07;12.88;;;7.25;;
32760;SDS011;19126;47.472;7.850;2023-04-06T08:29:34;11.43;;;6.85;;
32760;SDS011;19126;47.472;7.850;2023-04-06T08:32:04;13.85;;;6.18;;
32760;SDS011;19126;47.472;7.850;2023-04-06T08:34:33;15.45;;;6.68;;
32760;SDS011;19126;47.472;7.850;2023-04-06T08:37:00;11.02;;;6.80;;
32760;SDS011;19126;47.472;7.850;2023-04-06T08:39:28;10.32;;;6.20;;
32760;SDS011;19126;47.472;7.850;2023-04-06T08:41:55;18.65;;;6.57;;
32760;SDS011;19126;47.472;7.850;2023-04-06T08:44:25;14.18;;;6.00;;
32760;SDS011;19126;47.472;7.850;2023-04-06T08:46:53;9.02;;;5.78;;
32760;SDS011;19126;47.472;7.850;2023-04-06T08:49:23;15.52;;;7.22;;
32760;SDS011;19126;47.472;7.850;2023-04-06T08:51:52;8.80;;;6.35;;
32760;SDS011;19126;47.472;7.850;2023-04-06T08:54:20;9.48;;;6.18;;
32760;SDS011;19126;47.472;7.850;2023-04-06T08:56:48;10.93;;;6.72;;
32760;SDS011;19126;47.472;7.850;2023-04-06T08:59:15;9.40;;;6.15;;
32760;SDS011;19126;47.472;7.850;2023-04-06T09:01:43;13.98;;;6.32;;
32760;SDS011;19126;47.472;7.850;2023-04-06T09:04:12;16.20;;;7.38;;
32760;SDS011;19126;47.472;7.850;2023-04-06T09:06:39;11.05;;;6.28;;
32760;SDS011;19126;47.472;7.850;2023-04-06T09:09:10;15.30;;;6.43;;
32760;SDS011;19126;47.472;7.850;2023-04-06T09:11:42;13.77;;;6.65;;
32760;SDS011;19126;47.472;7.850;2023-04-06T09:14:13;9.35;;;6.70;;
32760;SDS011;19126;47.472;7.850;2023-04-06T09:16:42;11.77;;;7.07;;
32760;SDS011;19126;47.472;7.850;2023-04-06T09:19:13;12.13;;;6.88;;
32760;SDS011;19126;47.472;7.850;2023-04-06T09:21:40;10.38;;;6.90;;
32760;SDS011;19126;47.472;7.850;2023-04-06T09:24:07;9.45;;;6.88;;
32760;SDS011;19126;47.472;7.850;2023-04-06T09:26:45;14.55;;;6.72;;
32760;SDS011;19126;47.472;7.850;2023-04-06T09:29:21;14.70;;;6.88;;
32760;SDS011;19126;47.472;7.850;2023-04-06T09:31:51;11.63;;;6.47;;
32760;SDS011;19126;47.472;7.850;2023-04-06T09:34:27;16.80;;;6.82;;
32760;SDS011;19126;47.472;7.850;2023-04-06T09:36:55;10.73;;;6.43;;
32760;SDS011;19126;47.472;7.850;2023-04-06T09:39:23;12.10;;;7.05;;
32760;SDS011;19126;47.472;7.850;2023-04-06T09:41:52;11.75;;;6.80;;
32760;SDS011;19126;47.472;7.850;2023-04-06T09:44:21;10.52;;;7.32;;
32760;SDS011;19126;47.472;7.850;2023-04-06T09:46:50;11.00;;;6.55;;
32760;SDS011;19126;47.472;7.850;2023-04-06T09:49:21;12.35;;;6.68;;
32760;SDS011;19126;47.472;7.850;2023-04-06T09:51:53;13.10;;;7.40;;
32760;SDS011;19126;47.472;7.850;2023-04-06T09:54:25;15.80;;;6.47;;
32760;SDS011;19126;47.472;7.850;2023-04-06T09:56:58;12.15;;;6.30;;
32760;SDS011;19126;47.472;7.850;2023-04-06T09:59:37;11.30;;;5.90;;
32760;SDS011;19126;47.472;7.850;2023-04-06T10:02:12;10.40;;;6.75;;
32760;SDS011;19126;47.472;7.850;2023-04-06T10:04:51;14.13;;;7.00;;
32760;SDS011;19126;47.472;7.850;2023-04-06T10:07:23;11.85;;;6.68;;
32760;SDS011;19126;47.472;7.850;2023-04-06T10:09:51;10.75;;;6.30;;
32760;SDS011;19126;47.472;7.850;2023-04-06T10:12:22;10.85;;;5.80;;
32760;SDS011;19126;47.472;7.850;2023-04-06T10:14:50;12.02;;;6.10;;
32760;SDS011;19126;47.472;7.850;2023-04-06T10:17:17;10.45;;;5.70;;
32760;SDS011;19126;47.472;7.850;2023-04-06T10:19:47;13.32;;;6.07;;
32760;SDS011;19126;47.472;7.850;2023-04-06T10:22:22;10.05;;;5.75;;
32760;SDS011;19126;47.472;7.850;2023-04-06T10:25:01;12.10;;;6.82;;
32760;SDS011;19126;47.472;7.850;2023-04-06T10:27:30;10.38;;;5.45;;
32760;SDS011;19126;47.472;7.850;2023-04-06T10:30:02;9.07;;;5.15;;
32760;SDS011;19126;47.472;7.850;2023-04-06T10:35:10;11.77;;;5.85;;
32760;SDS011;19126;47.472;7.850;2023-04-06T10:37:53;10.32;;;5.50;;
32760;SDS011;19126;47.472;7.850;2023-04-06T10:40:29;13.23;;;5.63;;
32760;SDS011;19126;47.472;7.850;2023-04-06T10:43:07;11.13;;;5.95;;
32760;SDS011;19126;47.472;7.850;2023-04-06T10:45:37;10.75;;;6.18;;
32760;SDS011;19126;47.472;7.850;2023-04-06T10:48:12;11.50;;;6.07;;
32760;SDS011;19126;47.472;7.850;2023-04-06T10:50:44;8.73;;;5.45;;
32760;SDS011;19126;47.472;7.850;2023-04-06T10:53:20;9.93;;;5.75;;
32760;SDS011;19126;47.472;7.850;2023-04-06T10:55:49;8.35;;;5.10;;
32760;SDS011;19126;47.472;7.850;2023-04-06T10:58:18;8.60;;;4.22;;
32760;SDS011;19126;47.472;7.850;2023-04-06T11:00:46;6.07;;;4.05;;
32760;SDS011;19126;47.472;7.850;2023-04-06T11:03:15;6.53;;;3.90;;
32760;SDS011;19126;47.472;7.850;2023-04-06T11:05:44;6.47;;;3.72;;
32760;SDS011;19126;47.472;7.850;2023-04-06T11:08:21;9.25;;;5.20;;
32760;SDS011;19126;47.472;7.850;2023-04-06T11:10:51;8.75;;;4.93;;
32760;SDS011;19126;47.472;7.850;2023-04-06T11:13:20;11.57;;;4.65;;
32760;SDS011;19126;47.472;7.850;2023-04-06T11:15:47;8.05;;;4.72;;
32760;SDS011;19126;47.472;7.850;2023-04-06T11:18:17;8.45;;;4.35;;
32760;SDS011;19126;47.472;7.850;2023-04-06T11:20:47;8.40;;;4.20;;
32760;SDS011;19126;47.472;7.850;2023-04-06T11:23:21;8.75;;;3.92;;
32760;SDS011;19126;47.472;7.850;2023-04-06T11:25:51;11.40;;;4.93;;
32760;SDS011;19126;47.472;7.850;2023-04-06T11:28:19;7.47;;;4.20;;
32760;SDS011;19126;47.472;7.850;2023-04-06T11:30:47;10.82;;;4.82;;
32760;SDS011;19126;47.472;7.850;2023-04-06T11:33:19;10.20;;;5.00;;
32760;SDS011;19126;47.472;7.850;2023-04-06T11:35:47;11.07;;;5.30;;
32760;SDS011;19126;47.472;7.850;2023-04-06T11:38:16;9.18;;;5.30;;
32760;SDS011;19126;47.472;7.850;2023-04-06T11:40:45;9.60;;;5.22;;
32760;SDS011;19126;47.472;7.850;2023-04-06T11:43:12;9.55;;;5.55;;
32760;SDS011;19126;47.472;7.850;2023-04-06T11:45:43;6.43;;;4.80;;
32760;SDS011;19126;47.472;7.850;2023-04-06T11:48:17;8.60;;;5.10;;
32760;SDS011;19126;47.472;7.850;2023-04-06T11:50:46;10.70;;;5.00;;
32760;SDS011;19126;47.472;7.850;2023-04-06T11:53:23;8.20;;;5.07;;
32760;SDS011;19126;47.472;7.850;2023-04-06T11:55:51;7.32;;;4.72;;
32760;SDS011;19126;47.472;7.850;2023-04-06T11:58:19;12.75;;;5.57;;
32760;SDS011;19126;47.472;7.850;2023-04-06T12:00:47;8.55;;;5.05;;
32760;SDS011;19126;47.472;7.850;2023-04-06T12:03:15;9.27;;;4.85;;
32760;SDS011;19126;47.472;7.850;2023-04-06T12:05:45;7.60;;;4.53;;
32760;SDS011;19126;47.472;7.850;2023-04-06T12:08:12;8.82;;;4.35;;
32760;SDS011;19126;47.472;7.850;2023-04-06T12:10:40;8.55;;;4.82;;
32760;SDS011;19126;47.472;7.850;2023-04-06T12:13:07;7.65;;;5.03;;
32760;SDS011;19126;47.472;7.850;2023-04-06T12:15:34;9.75;;;5.85;;
32760;SDS011;19126;47.472;7.850;2023-04-06T12:18:03;10.48;;;6.53;;
32760;SDS011;19126;47.472;7.850;2023-04-06T12:20:31;13.38;;;7.43;;
32760;SDS011;19126;47.472;7.850;2023-04-06T12:22:59;17.88;;;7.50;;
32760;SDS011;19126;47.472;7.850;2023-04-06T12:25:26;17.05;;;8.10;;
32760;SDS011;19126;47.472;7.850;2023-04-06T12:27:54;15.95;;;8.35;;
32760;SDS011;19126;47.472;7.850;2023-04-06T12:30:21;12.57;;;8.02;;
32760;SDS011;19126;47.472;7.850;2023-04-06T12:32:49;14.43;;;8.00;;
32760;SDS011;19126;47.472;7.850;2023-04-06T12:35:18;11.95;;;7.47;;
32760;SDS011;19126;47.472;7.850;2023-04-06T12:37:47;9.85;;;6.72;;
32760;SDS011;19126;47.472;7.850;2023-04-06T12:40:18;12.05;;;7.57;;
32760;SDS011;19126;47.472;7.850;2023-04-06T12:42:47;11.70;;;6.38;;
32760;SDS011;19126;47.472;7.850;2023-04-06T12:45:15;19.10;;;7.20;;
32760;SDS011;19126;47.472;7.850;2023-04-06T12:47:42;14.93;;;7.57;;
32760;SDS011;19126;47.472;7.850;2023-04-06T12:50:10;11.05;;;7.05;;
32760;SDS011;19126;47.472;7.850;2023-04-06T12:52:39;18.40;;;7.25;;
32760;SDS011;19126;47.472;7.850;2023-04-06T12:55:06;11.60;;;7.07;;
32760;SDS011;19126;47.472;7.850;2023-04-06T12:57:35;10.43;;;6.82;;
32760;SDS011;19126;47.472;7.850;2023-04-06T13:00:03;10.70;;;6.60;;
32760;SDS011;19126;47.472;7.850;2023-04-06T13:02:32;13.48;;;5.93;;
32760;SDS011;19126;47.472;7.850;2023-04-06T13:04:59;12.57;;;7.00;;
32760;SDS011;19126;47.472;7.850;2023-04-06T13:07:27;10.65;;;5.85;;
32760;SDS011;19126;47.472;7.850;2023-04-06T13:09:56;8.07;;;6.13;;
32760;SDS011;19126;47.472;7.850;2023-04-06T13:12:23;10.82;;;5.90;;
32760;SDS011;19126;47.472;7.850;2023-04-06T13:14:51;11.88;;;6.00;;
32760;SDS011;19126;47.472;7.850;2023-04-06T13:17:21;11.32;;;5.80;;
32760;SDS011;19126;47.472;7.850;2023-04-06T13:19:48;9.73;;;5.53;;
32760;SDS011;19126;47.472;7.850;2023-04-06T13:22:16;7.97;;;4.40;;
32760;SDS011;19126;47.472;7.850;2023-04-06T13:24:43;10.27;;;5.68;;
32760;SDS011;19126;47.472;7.850;2023-04-06T13:27:12;9.45;;;5.32;;
32760;SDS011;19126;47.472;7.850;2023-04-06T13:29:40;16.08;;;5.30;;
32760;SDS011;19126;47.472;7.850;2023-04-06T13:32:08;11.00;;;5.13;;
32760;SDS011;19126;47.472;7.850;2023-04-06T13:34:35;7.10;;;4.32;;
32760;SDS011;19126;47.472;7.850;2023-04-06T13:37:03;5.70;;;3.72;;
32760;SDS011;19126;47.472;7.850;2023-04-06T13:39:31;7.03;;;3.92;;
32760;SDS011;19126;47.472;7.850;2023-04-06T13:41:58;5.95;;;3.88;;
32760;SDS011;19126;47.472;7.850;2023-04-06T13:44:29;8.23;;;3.85;;
32760;SDS011;19126;47.472;7.850;2023-04-06T13:46:56;5.47;;;3.70;;
32760;SDS011;19126;47.472;7.850;2023-04-06T13:49:23;9.63;;;4.30;;
32760;SDS011;19126;47.472;7.850;2023-04-06T13:51:51;8.27;;;4.57;;
32760;SDS011;19126;47.472;7.850;2023-04-06T13:54:19;4.78;;;3.17;;
32760;SDS011;19126;47.472;7.850;2023-04-06T13:56:46;6.70;;;4.70;;
32760;SDS011;19126;47.472;7.850;2023-04-06T13:59:14;9.35;;;5.82;;
32760;SDS011;19126;47.472;7.850;2023-04-06T14:01:42;6.85;;;4.00;;
32760;SDS011;19126;47.472;7.850;2023-04-06T14:04:10;8.35;;;4.45;;
32760;SDS011;19126;47.472;7.850;2023-04-06T14:06:38;11.20;;;4.20;;
32760;SDS011;19126;47.472;7.850;2023-04-06T14:09:05;10.85;;;6.40;;
32760;SDS011;19126;47.472;7.850;2023-04-06T14:11:33;17.27;;;8.30;;
32760;SDS011;19126;47.472;7.850;2023-04-06T14:14:01;14.20;;;8.35;;
32760;SDS011;19126;47.472;7.850;2023-04-06T14:16:29;14.48;;;8.13;;
32760;SDS011;19126;47.472;7.850;2023-04-06T14:18:58;15.80;;;8.18;;
32760;SDS011;19126;47.472;7.850;2023-04-06T14:21:26;15.65;;;8.93;;
32760;SDS011;19126;47.472;7.850;2023-04-06T14:23:53;21.35;;;9.90;;
32760;SDS011;19126;47.472;7.850;2023-04-06T14:26:21;20.27;;;8.82;;
32760;SDS011;19126;47.472;7.850;2023-04-06T14:28:49;17.65;;;9.30;;
32760;SDS011;19126;47.472;7.850;2023-04-06T14:31:16;16.08;;;8.73;;
32760;SDS011;19126;47.472;7.850;2023-04-06T14:33:44;13.88;;;8.30;;
32760;SDS011;19126;47.472;7.850;2023-04-06T14:36:12;22.50;;;9.68;;
32760;SDS011;19126;47.472;7.850;2023-04-06T14:38:40;15.02;;;8.93;;
32760;SDS011;19126;47.472;7.850;2023-04-06T14:41:09;13.60;;;7.82;;
32760;SDS011;19126;47.472;7.850;2023-04-06T14:43:43;12.18;;;7.47;;
32760;SDS011;19126;47.472;7.850;2023-04-06T14:46:10;16.08;;;8.10;;